createdAt,value
2023-04-21T00:01:42.124Z,12.50
2023-04-21T00:04:13.465Z,12.03
2023-04-21T00:06:42.621Z,11.20
2023-04-21T00:09:11.058Z,10.90
2023-04-21T00:11:40.224Z,12.40
2023-04-21T00:14:08.109Z,11.50
2023-04-21T00:16:35.951Z,11.30
2023-04-21T00:19:06.718Z,11.17
2023-04-21T00:21:34.629Z,11.00
2023-04-21T00:24:02.488Z,10.43
2023-04-21T00:26:30.277Z,10.90
2023-04-21T00:28:59.457Z,11.77
2023-04-21T00:31:27.340Z,9.90
2023-04-21T00:33:55.665Z,12.17
2023-04-21T00:36:24.703Z,11.57
2023-04-21T00:38:52.485Z,11.00
2023-04-21T00:41:20.368Z,11.30
2023-04-21T00:44:06.846Z,11.43
2023-04-21T00:46:34.977Z,11.87
2023-04-21T00:49:06.162Z,11.70
2023-04-21T00:51:35.650Z,11.97
2023-04-21T00:54:06.302Z,11.17
2023-04-21T00:56:35.873Z,10.77
2023-04-21T00:59:05.333Z,12.13
2023-04-21T01:01:34.186Z,11.53
2023-04-21T01:04:02.461Z,12.53
2023-04-21T01:06:32.082Z,11.77
2023-04-21T01:09:00.074Z,11.27
2023-04-21T01:11:27.992Z,11.17
2023-04-21T01:13:56.416Z,11.13
2023-04-21T01:16:26.802Z,11.23
2023-04-21T01:18:54.891Z,12.43
2023-04-21T01:21:23.754Z,11.53
2023-04-21T01:23:52.929Z,11.03
2023-04-21T01:26:21.173Z,10.83
2023-04-21T01:28:49.132Z,10.97
2023-04-21T01:31:17.600Z,10.87
2023-04-21T01:33:45.771Z,11.30
2023-04-21T01:36:13.622Z,11.40
2023-04-21T01:38:41.801Z,11.37
2023-04-21T01:41:11.232Z,12.00
2023-04-21T01:43:39.297Z,10.90
2023-04-21T01:46:07.660Z,11.60
2023-04-21T01:48:37.450Z,11.10
2023-04-21T01:51:05.502Z,11.03
2023-04-21T01:53:33.317Z,9.93
2023-04-21T01:56:01.209Z,10.13
2023-04-21T01:58:30.417Z,9.83
2023-04-21T02:00:58.251Z,10.53
2023-04-21T02:03:26.195Z,10.90
2023-04-21T02:05:54.060Z,12.37
2023-04-21T02:08:21.854Z,10.70
2023-04-21T02:10:49.660Z,10.90
2023-04-21T02:13:17.453Z,10.70
2023-04-21T02:15:46.687Z,11.90
2023-04-21T02:18:14.786Z,10.07
2023-04-21T02:20:42.756Z,11.40
2023-04-21T02:23:10.655Z,10.50
2023-04-21T02:25:38.499Z,11.30
2023-04-21T02:28:06.296Z,11.60
2023-04-21T02:30:35.110Z,10.07
2023-04-21T02:33:04.241Z,10.97
2023-04-21T02:35:33.597Z,10.93
2023-04-21T02:38:07.031Z,10.73
2023-04-21T02:40:34.750Z,10.50
2023-04-21T02:43:02.906Z,11.10
2023-04-21T02:45:30.820Z,10.80
2023-04-21T02:47:59.265Z,12.30
2023-04-21T02:50:28.649Z,10.70
2023-04-21T02:52:56.556Z,11.23
2023-04-21T02:55:25.480Z,12.10
2023-04-21T02:57:53.274Z,11.80
2023-04-21T03:00:21.483Z,11.33
2023-04-21T03:02:49.426Z,10.50
2023-04-21T03:05:17.600Z,12.57
2023-04-21T03:07:47.263Z,11.57
2023-04-21T03:10:15.072Z,11.70
2023-04-21T03:12:42.924Z,11.10
2023-04-21T03:15:11.291Z,11.40
2023-04-21T03:17:39.167Z,11.77
2023-04-21T03:20:08.358Z,12.10
2023-04-21T03:22:36.288Z,11.07
2023-04-21T03:25:07.201Z,13.80
2023-04-21T03:27:36.395Z,11.33
2023-04-21T03:30:04.449Z,9.87
2023-04-21T03:32:32.228Z,11.27
2023-04-21T03:35:00.002Z,11.50
2023-04-21T03:37:27.781Z,11.97
2023-04-21T03:39:55.589Z,10.83
2023-04-21T03:42:26.046Z,11.70
2023-04-21T03:44:53.826Z,10.80
2023-04-21T03:47:21.586Z,11.13
2023-04-21T03:49:49.342Z,10.27
2023-04-21T03:52:17.323Z,10.17
2023-04-21T03:54:45.408Z,10.57
2023-04-21T03:57:13.320Z,11.37
2023-04-21T03:59:42.447Z,11.27
2023-04-21T04:02:10.400Z,11.20
2023-04-21T04:04:38.439Z,10.87
2023-04-21T04:07:07.428Z,10.90
2023-04-21T04:09:35.246Z,10.87
2023-04-21T04:12:03.727Z,11.23
2023-04-21T04:14:31.571Z,10.37
2023-04-21T04:17:01.240Z,11.37
2023-04-21T04:19:32.382Z,11.13
2023-04-21T04:22:01.084Z,11.30
2023-04-21T04:24:29.606Z,9.83
2023-04-21T04:26:58.107Z,10.80
2023-04-21T04:29:26.926Z,11.40
2023-04-21T04:31:54.847Z,11.07
2023-04-21T04:34:24.390Z,10.63
2023-04-21T04:36:52.185Z,11.67
2023-04-21T04:39:20.364Z,11.57
2023-04-21T04:41:48.592Z,10.93
2023-04-21T04:44:17.968Z,11.50
2023-04-21T04:46:46.416Z,11.77
2023-04-21T04:49:15.350Z,9.77
2023-04-21T04:51:44.439Z,10.77
2023-04-21T04:54:12.263Z,10.93
2023-04-21T04:56:40.386Z,12.23
2023-04-21T04:59:08.288Z,10.87
2023-04-21T05:01:37.953Z,12.77
2023-04-21T05:04:06.013Z,12.10
2023-04-21T05:06:34.093Z,11.70
2023-04-21T05:09:04.801Z,12.60
2023-04-21T05:11:32.700Z,11.83
2023-04-21T05:14:00.657Z,11.77
2023-04-21T05:16:28.529Z,13.27
2023-04-21T05:18:56.392Z,12.20
2023-04-21T05:21:27.455Z,13.40
2023-04-21T05:23:55.821Z,12.80
2023-04-21T05:26:24.990Z,14.43
2023-04-21T05:28:52.898Z,13.87
2023-04-21T05:31:20.690Z,12.70
2023-04-21T05:33:48.467Z,13.90
2023-04-21T05:36:16.232Z,13.47
2023-04-21T05:38:44.198Z,17.40
2023-04-21T05:41:12.130Z,15.50
2023-04-21T05:43:41.227Z,15.23
2023-04-21T05:46:10.956Z,13.10
2023-04-21T05:48:40.178Z,13.93
2023-04-21T05:51:11.502Z,14.60
2023-04-21T05:53:39.543Z,15.30
2023-04-21T05:56:09.546Z,16.80
2023-04-21T05:58:37.764Z,15.20
2023-04-21T06:01:07.388Z,15.77
2023-04-21T06:03:35.359Z,16.27
2023-04-21T06:06:04.538Z,16.30
2023-04-21T06:08:32.394Z,16.47
2023-04-21T06:11:00.245Z,17.50
2023-04-21T06:13:28.125Z,16.20
2023-04-21T06:15:56.113Z,17.93
2023-04-21T06:18:27.612Z,15.77
2023-04-21T06:20:55.891Z,18.07
2023-04-21T06:23:23.810Z,18.20
2023-04-21T06:26:05.579Z,18.13
2023-04-21T06:28:33.815Z,17.47
2023-04-21T06:31:02.494Z,16.93
2023-04-21T06:33:31.800Z,15.20
2023-04-21T06:35:59.571Z,16.47
2023-04-21T06:38:27.540Z,15.30
2023-04-21T06:40:55.466Z,14.27
2023-04-21T06:43:23.280Z,15.17
2023-04-21T06:45:51.302Z,15.80
2023-04-21T06:48:19.346Z,13.90
2023-04-21T06:50:48.481Z,15.47
2023-04-21T06:53:17.935Z,13.37
2023-04-21T06:55:45.744Z,15.20
2023-04-21T06:58:13.492Z,13.50
2023-04-21T07:00:41.352Z,13.07
2023-04-21T07:03:09.327Z,11.70
2023-04-21T07:05:37.182Z,12.80
2023-04-21T07:08:06.443Z,10.70
2023-04-21T07:10:34.180Z,10.83
2023-04-21T07:13:01.895Z,11.50
2023-04-21T07:15:29.627Z,11.87
2023-04-21T07:17:58.941Z,11.70
2023-04-21T07:20:27.003Z,11.50
2023-04-21T07:22:54.905Z,10.77
2023-04-21T07:25:24.315Z,10.20
2023-04-21T07:27:52.194Z,10.37
2023-04-21T07:30:19.966Z,10.57
2023-04-21T07:32:47.839Z,9.83
2023-04-21T07:35:16.114Z,10.43
2023-04-21T07:37:43.860Z,9.77
2023-04-21T07:40:12.308Z,9.83
2023-04-21T07:42:41.595Z,9.27
2023-04-21T07:45:10.268Z,10.80
2023-04-21T07:47:38.065Z,11.47
2023-04-21T07:50:06.892Z,11.90
2023-04-21T07:52:34.674Z,10.93
2023-04-21T07:55:02.482Z,8.93
2023-04-21T07:57:33.828Z,10.10
2023-04-21T08:00:02.949Z,11.27
2023-04-21T08:02:30.914Z,10.10
2023-04-21T08:04:58.821Z,11.00
2023-04-21T08:07:26.857Z,9.53
2023-04-21T08:09:54.752Z,10.93
2023-04-21T08:12:22.526Z,10.77
2023-04-21T08:14:50.343Z,8.93
2023-04-21T08:17:19.428Z,10.87
2023-04-21T08:19:47.199Z,9.30
2023-04-21T08:22:14.992Z,9.73
2023-04-21T08:24:42.742Z,8.90
2023-04-21T08:27:10.493Z,8.70
2023-04-21T08:29:38.363Z,8.93
2023-04-21T08:32:06.525Z,8.53
2023-04-21T08:34:36.034Z,10.93
2023-04-21T08:37:03.852Z,11.43
2023-04-21T08:39:31.602Z,10.03
2023-04-21T08:42:00.190Z,9.53
2023-04-21T08:44:27.977Z,10.03
2023-04-21T08:46:57.504Z,7.90
2023-04-21T08:49:27.396Z,9.50
2023-04-21T08:51:56.482Z,9.80
2023-04-21T08:54:24.251Z,9.43
2023-04-21T08:56:55.213Z,9.83
2023-04-21T08:59:26.782Z,10.80
2023-04-21T09:02:08.239Z,9.97
2023-04-21T09:04:36.589Z,8.20
2023-04-21T09:07:05.933Z,9.30
2023-04-21T09:09:33.675Z,9.27
2023-04-21T09:12:02.363Z,8.83
2023-04-21T09:14:33.488Z,9.57
2023-04-21T09:17:02.556Z,8.73
2023-04-21T09:19:30.520Z,9.20
2023-04-21T09:21:58.354Z,8.70
2023-04-21T09:24:27.544Z,9.10
2023-04-21T09:26:55.718Z,8.93
2023-04-21T09:29:24.721Z,11.40
2023-04-21T09:31:52.686Z,12.10
2023-04-21T09:34:21.813Z,10.70
2023-04-21T09:36:49.774Z,11.57
2023-04-21T09:41:49.566Z,11.10
2023-04-21T09:44:17.743Z,11.43
2023-04-21T09:46:50.193Z,10.50
2023-04-21T09:49:19.219Z,12.10
2023-04-21T09:54:29.158Z,10.10
2023-04-21T09:57:01.576Z,9.90
2023-04-21T09:59:33.300Z,8.77
2023-04-21T10:02:02.359Z,9.57
2023-04-21T10:04:33.366Z,8.80
2023-04-21T10:07:01.817Z,7.40
2023-04-21T10:09:35.937Z,8.50
2023-04-21T10:12:07.710Z,7.60
2023-04-21T10:14:37.080Z,7.50
2023-04-21T10:17:06.244Z,7.23
2023-04-21T10:19:39.787Z,8.33
2023-04-21T10:22:09.422Z,9.40
2023-04-21T10:24:39.305Z,8.40
2023-04-21T10:27:11.719Z,9.00
2023-04-21T10:29:52.361Z,9.20
2023-04-21T10:32:33.349Z,10.60
2023-04-21T10:35:03.183Z,10.10
2023-04-21T10:37:32.735Z,9.13
2023-04-21T10:40:00.634Z,10.23
2023-04-21T10:42:36.760Z,8.20
2023-04-21T10:45:11.250Z,9.70
2023-04-21T10:47:42.767Z,8.77
2023-04-21T10:50:15.870Z,7.70
2023-04-21T10:52:48.401Z,8.40
2023-04-21T10:55:16.992Z,7.00
2023-04-21T10:57:46.704Z,7.57
2023-04-21T11:00:20.396Z,8.10
2023-04-21T11:02:56.355Z,8.60
2023-04-21T11:05:34.458Z,8.70
2023-04-21T11:08:14.322Z,10.23
2023-04-21T11:10:54.322Z,10.30
2023-04-21T11:13:25.249Z,12.23
2023-04-21T11:16:08.035Z,12.90
2023-04-21T11:18:41.110Z,12.60
2023-04-21T11:21:15.831Z,9.60
2023-04-21T11:23:49.069Z,10.87
2023-04-21T11:26:17.050Z,12.30
2023-04-21T11:28:49.461Z,11.70
2023-04-21T11:31:17.451Z,9.77
2023-04-21T11:33:45.301Z,8.17
2023-04-21T11:36:13.293Z,9.67
2023-04-21T11:38:42.044Z,9.77
2023-04-21T11:41:10.858Z,7.47
2023-04-21T11:43:39.248Z,10.87
2023-04-21T11:46:17.907Z,10.10
2023-04-21T11:48:46.785Z,9.70
2023-04-21T11:51:22.029Z,11.50
2023-04-21T11:53:50.175Z,9.93
2023-04-21T11:56:22.795Z,10.40
2023-04-21T11:58:52.556Z,12.00
2023-04-21T12:01:22.601Z,9.63
2023-04-21T12:03:54.996Z,10.40
2023-04-21T12:06:26.899Z,10.07
2023-04-21T12:09:00.876Z,10.20
2023-04-21T12:11:29.493Z,10.47
2023-04-21T12:13:58.364Z,9.53
2023-04-21T12:16:28.713Z,9.73
2023-04-21T12:18:57.498Z,8.13
2023-04-21T12:21:28.870Z,9.33
2023-04-21T12:23:56.810Z,9.60
2023-04-21T12:26:24.760Z,7.30
2023-04-21T12:28:53.018Z,8.03
2023-04-21T12:31:20.876Z,11.13
2023-04-21T12:33:50.094Z,11.73
2023-04-21T12:36:18.210Z,10.10
2023-04-21T12:38:45.970Z,9.67
2023-04-21T12:41:13.737Z,9.20
2023-04-21T12:43:41.513Z,8.63
2023-04-21T12:46:09.730Z,8.07
2023-04-21T12:48:37.783Z,7.20
2023-04-21T12:51:07.125Z,6.00
2023-04-21T12:53:36.621Z,5.70
2023-04-21T12:56:05.365Z,4.70
2023-04-21T12:58:33.637Z,4.40
2023-04-21T13:01:01.522Z,3.47
2023-04-21T13:03:29.412Z,3.40
2023-04-21T13:05:57.822Z,2.67
2023-04-21T13:08:27.016Z,2.47
2023-04-21T13:10:55.470Z,2.33
2023-04-21T13:13:23.416Z,2.37
2023-04-21T13:15:51.414Z,2.40
2023-04-21T13:18:19.277Z,3.10
2023-04-21T13:20:47.120Z,3.40
2023-04-21T13:23:15.981Z,2.30
2023-04-21T13:25:45.710Z,2.60
2023-04-21T13:28:14.395Z,3.33
2023-04-21T13:30:42.276Z,2.67
2023-04-21T13:33:10.889Z,2.70
2023-04-21T13:35:38.853Z,3.40
2023-04-21T13:38:06.855Z,2.90
2023-04-21T13:40:34.654Z,2.77
2023-04-21T13:43:03.828Z,2.60
2023-04-21T13:45:31.647Z,2.07
2023-04-21T13:47:59.466Z,1.70
2023-04-21T13:50:27.441Z,2.70
2023-04-21T13:52:55.359Z,2.50
2023-04-21T13:55:23.149Z,2.57
2023-04-21T13:57:51.037Z,3.13
2023-04-21T14:00:21.946Z,4.60
2023-04-21T14:02:50.198Z,4.83
2023-04-21T14:05:18.573Z,5.40
2023-04-21T14:07:46.558Z,4.33
2023-04-21T14:10:14.366Z,3.37
2023-04-21T14:12:44.296Z,4.53
2023-04-21T14:15:13.162Z,5.13
2023-04-21T14:17:42.498Z,4.93
2023-04-21T14:20:11.160Z,3.67
2023-04-21T14:22:38.956Z,3.20
2023-04-21T14:25:07.155Z,2.70
2023-04-21T14:27:35.274Z,2.40
2023-04-21T14:30:03.172Z,2.43
2023-04-21T14:32:31.117Z,2.13
2023-04-21T14:35:03.189Z,2.77
2023-04-21T14:37:31.133Z,2.00
2023-04-21T14:39:58.921Z,2.63
2023-04-21T14:42:26.714Z,2.13
2023-04-21T14:44:54.471Z,2.13
2023-04-21T14:47:22.774Z,2.00
2023-04-21T14:49:55.126Z,1.90
2023-04-21T14:52:26.698Z,1.87
2023-04-21T14:54:54.482Z,2.00
2023-04-21T14:57:22.627Z,2.20
2023-04-21T14:59:51.536Z,1.87
2023-04-21T15:02:20.536Z,1.80
2023-04-21T15:04:48.485Z,2.20
2023-04-21T15:07:19.948Z,2.27
2023-04-21T15:09:52.251Z,2.10
2023-04-21T15:12:20.131Z,1.77
2023-04-21T15:14:47.968Z,1.80
2023-04-21T15:17:15.724Z,1.53
2023-04-21T15:19:43.471Z,2.10
2023-04-21T15:22:12.176Z,1.80
2023-04-21T15:24:40.007Z,1.70
2023-04-21T15:27:09.187Z,1.70
2023-04-21T15:29:37.306Z,1.80
2023-04-21T15:32:05.501Z,1.60
2023-04-21T15:34:33.251Z,1.70
2023-04-21T15:37:00.996Z,1.60
2023-04-21T15:39:28.754Z,1.77
2023-04-21T15:41:57.226Z,1.40
2023-04-21T15:44:26.413Z,1.60
2023-04-21T15:46:54.375Z,1.93
2023-04-21T15:49:33.457Z,1.40
2023-04-21T15:52:02.891Z,1.73
2023-04-21T15:54:31.151Z,1.50
2023-04-21T15:56:58.962Z,1.70
2023-04-21T15:59:28.173Z,1.50
2023-04-21T16:01:56.751Z,1.80
2023-04-21T16:04:25.011Z,1.67
2023-04-21T16:06:53.160Z,1.73
2023-04-21T16:09:21.713Z,1.80
2023-04-21T16:11:50.734Z,2.60
2023-04-21T16:14:18.928Z,2.20
2023-04-21T16:16:48.179Z,2.10
2023-04-21T16:19:16.462Z,1.73
2023-04-21T16:21:44.368Z,3.27
2023-04-21T16:24:12.248Z,2.70
2023-04-21T16:26:40.341Z,2.90
2023-04-21T16:29:08.345Z,1.60
2023-04-21T16:31:36.259Z,1.80
2023-04-21T16:34:05.434Z,1.30
2023-04-21T16:36:34.155Z,1.60
2023-04-21T16:39:01.963Z,1.30
2023-04-21T16:41:30.296Z,1.40
2023-04-21T16:43:58.087Z,1.70
2023-04-21T16:46:25.965Z,1.40
2023-04-21T16:48:53.941Z,1.83
2023-04-21T16:51:23.188Z,2.03
2023-04-21T16:53:50.977Z,1.87
2023-04-21T16:56:20.222Z,1.77
2023-04-21T16:58:48.047Z,1.70
2023-04-21T17:01:15.831Z,1.67
2023-04-21T17:03:43.994Z,2.23
2023-04-21T17:06:11.994Z,1.40
2023-04-21T17:08:41.149Z,1.73
2023-04-21T17:11:09.557Z,1.33
2023-04-21T17:13:39.136Z,1.83
2023-04-21T17:16:07.934Z,2.00
2023-04-21T17:18:36.851Z,1.73
2023-04-21T17:21:06.030Z,1.27
2023-04-21T17:23:33.869Z,1.30
2023-04-21T17:26:04.988Z,2.07
2023-04-21T17:28:33.442Z,1.90
2023-04-21T17:31:13.872Z,1.80
2023-04-21T17:33:43.305Z,1.53
2023-04-21T17:36:11.262Z,1.73
2023-04-21T17:38:39.631Z,1.70
2023-04-21T17:41:08.850Z,1.70
2023-04-21T17:43:36.593Z,1.60
2023-04-21T17:46:04.680Z,1.77
2023-04-21T17:48:32.514Z,1.73
2023-04-21T17:51:00.401Z,2.03
2023-04-21T17:53:28.151Z,1.73
2023-04-21T17:55:56.425Z,2.30
2023-04-21T17:58:26.556Z,2.20
2023-04-21T18:00:57.746Z,1.90
2023-04-21T18:03:27.270Z,1.70
2023-04-21T18:05:55.801Z,2.93
2023-04-21T18:08:23.613Z,1.60
2023-04-21T18:10:51.442Z,1.83
2023-04-21T18:13:19.286Z,1.73
2023-04-21T18:15:48.501Z,1.70
2023-04-21T18:18:16.310Z,1.47
2023-04-21T18:20:44.334Z,2.17
2023-04-21T18:23:12.475Z,2.40
2023-04-21T18:25:43.059Z,2.00
2023-04-21T18:28:12.460Z,1.83
2023-04-21T18:30:41.577Z,2.03
2023-04-21T18:33:11.361Z,2.30
2023-04-21T18:35:39.418Z,2.17
2023-04-21T18:38:08.209Z,1.93
2023-04-21T18:40:37.210Z,2.30
2023-04-21T18:43:05.353Z,2.20
2023-04-21T18:45:33.809Z,1.70
2023-04-21T18:48:01.638Z,2.10
2023-04-21T18:50:32.241Z,1.90
2023-04-21T18:53:00.569Z,2.00
2023-04-21T18:55:28.419Z,2.00
2023-04-21T18:57:56.142Z,2.03
2023-04-21T19:00:24.056Z,2.47
2023-04-21T19:02:52.247Z,2.40
2023-04-21T19:05:20.418Z,3.50
2023-04-21T19:07:49.591Z,2.60
2023-04-21T19:10:17.608Z,3.00
2023-04-21T19:12:45.503Z,2.73
2023-04-21T19:15:13.407Z,2.77
2023-04-21T19:17:41.595Z,3.10
2023-04-21T19:20:10.644Z,8.50
2023-04-21T19:22:38.402Z,3.23
2023-04-21T19:25:08.484Z,2.40
2023-04-21T19:27:37.196Z,1.80
2023-04-21T19:30:05.861Z,2.20
2023-04-21T19:32:33.815Z,1.10
2023-04-21T19:35:02.295Z,0.93
2023-04-21T19:37:31.062Z,0.80
2023-04-21T19:40:00.183Z,1.00
2023-04-21T19:42:29.534Z,0.97
2023-04-21T19:44:57.305Z,0.70
2023-04-21T19:47:25.112Z,0.80
2023-04-21T19:49:52.903Z,0.80
2023-04-21T19:52:20.753Z,0.80
2023-04-21T19:54:48.551Z,0.77
2023-04-21T19:57:16.333Z,0.80
2023-04-21T19:59:45.438Z,0.80
2023-04-21T20:02:13.214Z,0.80
2023-04-21T20:04:42.643Z,0.87
2023-04-21T20:07:10.511Z,0.73
2023-04-21T20:09:38.432Z,1.00
2023-04-21T20:12:06.707Z,1.10
2023-04-21T20:14:34.483Z,0.77
2023-04-21T20:17:03.791Z,0.67
2023-04-21T20:19:31.754Z,0.70
2023-04-21T20:21:59.556Z,2.73
2023-04-21T20:24:27.650Z,3.53
2023-04-21T20:26:55.429Z,3.77
2023-04-21T20:29:23.266Z,1.77
2023-04-21T20:31:51.178Z,4.30
2023-04-21T20:34:20.452Z,3.80
2023-04-21T20:36:48.299Z,1.60
2023-04-21T20:39:17.570Z,1.67
2023-04-21T20:41:45.608Z,1.23
2023-04-21T20:44:14.132Z,3.10
2023-04-21T20:46:42.210Z,3.40
2023-04-21T20:49:10.069Z,4.23
2023-04-21T20:51:42.397Z,5.07
2023-04-21T20:54:10.264Z,1.77
2023-04-21T20:56:38.136Z,0.90
2023-04-21T20:59:06.236Z,1.10
2023-04-21T21:01:38.712Z,0.93
2023-04-21T21:04:06.643Z,0.90
2023-04-21T21:06:35.120Z,0.80
2023-04-21T21:09:04.474Z,0.83
2023-04-21T21:11:32.293Z,0.80
2023-04-21T21:14:00.053Z,0.77
2023-04-21T21:16:28.176Z,0.90
2023-04-21T21:18:55.934Z,1.00
2023-04-21T21:21:23.730Z,0.70
2023-04-21T21:23:51.534Z,0.83
2023-04-21T21:26:20.696Z,1.20
2023-04-21T21:28:48.509Z,1.10
2023-04-21T21:31:16.252Z,1.23
2023-04-21T21:33:44.006Z,1.07
2023-04-21T21:36:11.822Z,1.10
2023-04-21T21:38:39.635Z,1.20
2023-04-21T21:41:10.459Z,1.10
2023-04-21T21:43:39.791Z,1.00
2023-04-21T21:46:07.626Z,1.10
2023-04-21T21:48:35.691Z,1.00
2023-04-21T21:51:05.200Z,1.10
2023-04-21T21:53:33.949Z,1.00
2023-04-21T21:56:01.815Z,0.93
2023-04-21T21:58:29.597Z,1.00
2023-04-21T22:00:59.182Z,1.10
2023-04-21T22:03:27.293Z,1.17
2023-04-21T22:05:55.795Z,1.30
2023-04-21T22:08:23.550Z,1.13
2023-04-21T22:10:51.279Z,1.00
2023-04-21T22:13:19.049Z,0.90
2023-04-21T22:15:46.814Z,1.10
2023-04-21T22:18:18.477Z,1.20
2023-04-21T22:20:46.228Z,1.53
2023-04-21T22:23:14.017Z,1.97
2023-04-21T22:25:41.797Z,1.77
2023-04-21T22:28:09.551Z,1.50
2023-04-21T22:30:37.695Z,1.60
2023-04-21T22:33:05.707Z,1.33
2023-04-21T22:35:34.877Z,1.50
2023-04-21T22:38:02.649Z,1.37
2023-04-21T22:40:30.512Z,1.50
2023-04-21T22:42:58.611Z,1.30
2023-04-21T22:45:26.505Z,1.30
2023-04-21T22:47:55.642Z,1.20
2023-04-21T22:50:23.530Z,1.03
2023-04-21T22:52:52.704Z,1.20
2023-04-21T22:55:20.441Z,1.10
2023-04-21T22:57:48.380Z,1.53
2023-04-21T23:02:51.733Z,1.80
2023-04-21T23:05:19.796Z,1.20
2023-04-21T23:07:47.639Z,1.20
2023-04-21T23:10:16.915Z,1.67
2023-04-21T23:12:44.730Z,1.40
2023-04-21T23:15:12.793Z,1.57
2023-04-21T23:17:42.486Z,1.60
2023-04-21T23:20:11.339Z,2.00
2023-04-21T23:22:39.142Z,1.50
2023-04-21T23:25:08.476Z,2.47
2023-04-21T23:27:37.618Z,1.53
2023-04-21T23:30:05.993Z,1.70
2023-04-21T23:32:33.875Z,2.30
2023-04-21T23:35:01.696Z,3.00
2023-04-21T23:37:29.448Z,2.20
2023-04-21T23:39:57.175Z,2.00
2023-04-21T23:42:24.993Z,2.50
2023-04-21T23:44:54.166Z,3.00
2023-04-21T23:47:21.955Z,2.63
2023-04-21T23:49:49.778Z,2.50
2023-04-21T23:52:17.578Z,1.70
2023-04-21T23:54:45.422Z,1.93
2023-04-21T23:57:13.216Z,2.23
2023-04-21T23:59:41.560Z,2.33
